createdAt,value
2023-05-16T00:01:40.332Z,13.60
2023-05-16T00:04:05.202Z,13.70
2023-05-16T00:06:30.172Z,13.80
2023-05-16T00:08:54.672Z,13.80
2023-05-16T00:11:21.882Z,13.80
2023-05-16T00:13:47.846Z,13.80
2023-05-16T00:16:14.694Z,13.80
2023-05-16T00:18:39.622Z,13.80
2023-05-16T00:21:04.777Z,13.80
2023-05-16T00:23:29.311Z,13.80
2023-05-16T00:25:53.856Z,13.80
2023-05-16T00:28:20.036Z,13.90
2023-05-16T00:30:44.582Z,13.80
2023-05-16T00:33:09.175Z,13.80
2023-05-16T00:35:33.907Z,13.80
2023-05-16T00:37:58.459Z,13.70
2023-05-16T00:40:23.129Z,13.70
2023-05-16T00:42:47.705Z,13.60
2023-05-16T00:45:13.784Z,13.60
2023-05-16T00:47:38.575Z,13.60
2023-05-16T00:50:04.668Z,13.50
2023-05-16T00:52:33.713Z,13.40
2023-05-16T00:54:58.903Z,13.50
2023-05-16T00:57:23.544Z,13.50
2023-05-16T00:59:48.824Z,13.60
2023-05-16T01:02:17.109Z,13.70
2023-05-16T01:04:44.496Z,13.60
2023-05-16T01:07:09.096Z,13.40
2023-05-16T01:09:34.080Z,13.30
2023-05-16T01:12:11.215Z,13.40
2023-05-16T01:14:45.224Z,13.40
2023-05-16T01:17:19.160Z,13.40
2023-05-16T01:19:54.546Z,13.40
2023-05-16T01:22:31.239Z,13.40
2023-05-16T01:25:06.551Z,13.50
2023-05-16T01:27:34.553Z,13.50
2023-05-16T01:30:16.133Z,13.50
2023-05-16T01:32:40.976Z,13.50
2023-05-16T01:35:08.090Z,13.60
2023-05-16T01:37:38.717Z,13.70
2023-05-16T01:40:10.346Z,13.70
2023-05-16T01:42:40.866Z,13.70
2023-05-16T01:45:10.061Z,13.70
2023-05-16T01:47:41.373Z,13.70
2023-05-16T01:50:19.224Z,13.60
2023-05-16T01:52:50.769Z,13.50
2023-05-16T01:55:20.179Z,13.50
2023-05-16T01:57:47.554Z,13.40
2023-05-16T02:00:13.382Z,13.40
2023-05-16T02:02:42.295Z,13.40
2023-05-16T02:05:10.411Z,13.30
2023-05-16T02:07:35.549Z,13.30
2023-05-16T02:10:00.929Z,13.40
2023-05-16T02:12:26.428Z,13.40
2023-05-16T02:14:52.684Z,13.30
2023-05-16T02:17:17.658Z,13.20
2023-05-16T02:19:42.300Z,13.30
2023-05-16T02:22:10.498Z,13.30
2023-05-16T02:24:35.153Z,13.30
2023-05-16T02:27:00.191Z,13.30
2023-05-16T02:29:24.991Z,13.40
2023-05-16T02:31:54.012Z,13.40
2023-05-16T02:34:18.494Z,13.40
2023-05-16T02:36:42.980Z,13.30
2023-05-16T02:39:09.732Z,13.20
2023-05-16T02:41:34.427Z,13.20
2023-05-16T02:43:58.842Z,13.30
2023-05-16T02:46:25.305Z,13.30
2023-05-16T02:48:52.116Z,13.30
2023-05-16T02:51:16.663Z,13.30
2023-05-16T02:53:41.216Z,13.30
2023-05-16T02:56:07.175Z,13.30
2023-05-16T02:58:31.579Z,13.30
2023-05-16T03:00:56.154Z,13.30
2023-05-16T03:03:20.716Z,13.20
2023-05-16T03:05:47.582Z,13.10
2023-05-16T03:08:12.612Z,13.10
2023-05-16T03:10:37.258Z,13.10
2023-05-16T03:13:01.779Z,13.10
2023-05-16T03:15:26.971Z,13.10
2023-05-16T03:17:51.733Z,13.10
2023-05-16T03:20:16.563Z,13.10
2023-05-16T03:22:42.563Z,13.10
2023-05-16T03:25:09.163Z,13.10
2023-05-16T03:27:39.451Z,13.10
2023-05-16T03:30:04.053Z,13.10
2023-05-16T03:32:29.725Z,13.20
2023-05-16T03:34:54.512Z,13.30
2023-05-16T03:37:19.164Z,13.30
2023-05-16T03:39:45.254Z,13.40
2023-05-16T03:42:10.080Z,13.20
2023-05-16T03:44:34.702Z,13.20
2023-05-16T03:46:59.175Z,13.20
2023-05-16T03:49:28.052Z,13.20
2023-05-16T03:51:52.559Z,13.20
2023-05-16T03:54:17.551Z,13.30
2023-05-16T03:56:43.399Z,13.30
2023-05-16T03:59:07.925Z,13.40
2023-05-16T04:01:32.620Z,13.40
2023-05-16T04:03:57.172Z,13.50
2023-05-16T04:06:22.262Z,13.40
2023-05-16T04:08:46.937Z,13.40
2023-05-16T04:11:11.397Z,13.40
2023-05-16T04:13:37.241Z,13.40
2023-05-16T04:16:01.903Z,13.40
2023-05-16T04:18:26.595Z,13.40
2023-05-16T04:20:51.203Z,13.40
2023-05-16T04:23:16.141Z,13.30
2023-05-16T04:25:40.786Z,13.40
2023-05-16T04:28:05.903Z,13.40
2023-05-16T04:30:32.049Z,13.40
2023-05-16T04:32:57.414Z,13.40
2023-05-16T04:35:22.960Z,13.50
2023-05-16T04:37:47.529Z,13.60
2023-05-16T04:40:14.497Z,13.70
2023-05-16T04:42:39.436Z,13.70
2023-05-16T04:45:06.489Z,13.80
2023-05-16T04:47:32.568Z,13.80
2023-05-16T04:49:57.090Z,13.80
2023-05-16T04:52:22.137Z,13.80
2023-05-16T04:54:46.644Z,13.90
2023-05-16T04:57:17.149Z,13.90
2023-05-16T04:59:41.752Z,14.00
2023-05-16T05:02:07.930Z,14.00
2023-05-16T05:04:34.130Z,14.10
2023-05-16T05:06:58.892Z,14.20
2023-05-16T05:09:23.883Z,14.30
2023-05-16T05:11:48.473Z,14.40
2023-05-16T05:14:13.071Z,14.40
2023-05-16T05:16:38.222Z,14.30
2023-05-16T05:19:03.780Z,14.40
2023-05-16T05:21:30.851Z,14.50
2023-05-16T05:23:55.474Z,14.50
2023-05-16T05:26:22.316Z,14.60
2023-05-16T05:28:53.717Z,14.70
2023-05-16T05:31:22.156Z,14.70
2023-05-16T05:33:46.636Z,14.80
2023-05-16T05:36:11.590Z,15.00
2023-05-16T05:38:37.880Z,15.20
2023-05-16T05:41:02.523Z,15.30
2023-05-16T05:43:26.990Z,15.50
2023-05-16T05:45:51.712Z,15.60
2023-05-16T05:48:16.419Z,15.70
2023-05-16T05:50:41.135Z,15.70
2023-05-16T05:53:05.881Z,15.70
2023-05-16T05:55:31.978Z,15.70
2023-05-16T05:57:56.490Z,15.80
2023-05-16T06:00:21.687Z,16.00
2023-05-16T06:02:46.407Z,15.90
2023-05-16T06:05:11.311Z,15.90
2023-05-16T06:07:35.842Z,15.90
2023-05-16T06:10:05.114Z,15.90
2023-05-16T06:12:31.618Z,15.90
2023-05-16T06:14:56.261Z,16.00
2023-05-16T06:17:20.980Z,15.90
2023-05-16T06:19:45.612Z,15.90
2023-05-16T06:22:10.190Z,16.00
2023-05-16T06:24:34.739Z,16.10
2023-05-16T06:26:59.404Z,16.20
2023-05-16T06:29:25.473Z,16.30
2023-05-16T06:31:50.440Z,16.30
2023-05-16T06:34:15.059Z,16.40
2023-05-16T06:36:39.598Z,16.50
2023-05-16T06:39:05.025Z,16.60
2023-05-16T06:41:29.633Z,16.60
2023-05-16T06:43:54.361Z,16.50
2023-05-16T06:46:20.475Z,16.50
2023-05-16T06:48:45.204Z,16.70
2023-05-16T06:51:10.055Z,16.80
2023-05-16T06:53:34.664Z,16.80
2023-05-16T06:55:59.378Z,16.90
2023-05-16T06:58:23.970Z,17.00
2023-05-16T07:00:50.422Z,17.20
2023-05-16T07:03:16.554Z,17.30
2023-05-16T07:05:41.965Z,17.40
2023-05-16T07:08:08.079Z,17.50
2023-05-16T07:10:32.964Z,17.50
2023-05-16T07:12:59.088Z,17.60
2023-05-16T07:15:23.662Z,17.90
2023-05-16T07:17:50.993Z,18.30
2023-05-16T07:20:17.195Z,18.70
2023-05-16T07:22:42.109Z,18.90
2023-05-16T07:25:12.668Z,19.00
2023-05-16T07:27:37.674Z,19.10
2023-05-16T07:30:02.428Z,19.00
2023-05-16T07:32:30.016Z,19.00
2023-05-16T07:34:54.720Z,19.30
2023-05-16T07:37:20.906Z,19.70
2023-05-16T07:39:45.537Z,19.90
2023-05-16T07:42:10.920Z,19.90
2023-05-16T07:44:36.137Z,19.80
2023-05-16T07:47:01.153Z,19.90
2023-05-16T07:49:26.098Z,19.80
2023-05-16T07:51:50.755Z,19.90
2023-05-16T07:54:16.673Z,20.10
2023-05-16T07:56:41.264Z,20.40
2023-05-16T07:59:06.117Z,20.70
2023-05-16T08:01:30.939Z,20.80
2023-05-16T08:03:58.752Z,20.70
2023-05-16T08:06:24.271Z,20.90
2023-05-16T08:08:48.918Z,21.30
2023-05-16T08:11:15.049Z,21.20
2023-05-16T08:13:39.619Z,21.50
2023-05-16T08:16:04.441Z,21.50
2023-05-16T08:18:29.483Z,21.60
2023-05-16T08:20:54.398Z,21.60
2023-05-16T08:23:18.984Z,21.30
2023-05-16T08:25:43.630Z,21.40
2023-05-16T08:28:09.726Z,21.20
2023-05-16T08:30:34.311Z,21.20
2023-05-16T08:32:59.075Z,21.10
2023-05-16T08:35:23.646Z,21.00
2023-05-16T08:37:48.125Z,21.00
2023-05-16T08:40:15.500Z,21.10
2023-05-16T08:42:41.462Z,21.20
2023-05-16T08:45:10.115Z,21.30
2023-05-16T08:47:36.838Z,21.30
2023-05-16T08:50:04.157Z,21.10
2023-05-16T08:52:33.553Z,21.10
2023-05-16T08:55:09.933Z,21.30
2023-05-16T08:57:37.897Z,21.30
2023-05-16T09:00:07.543Z,21.20
2023-05-16T09:02:34.024Z,21.30
2023-05-16T09:04:59.788Z,21.40
2023-05-16T09:07:25.054Z,21.40
2023-05-16T09:09:50.221Z,21.40
2023-05-16T09:12:14.965Z,21.50
2023-05-16T09:14:39.589Z,21.50
2023-05-16T09:17:10.815Z,21.60
2023-05-16T09:19:42.051Z,21.80
2023-05-16T09:22:08.745Z,22.00
2023-05-16T09:24:33.453Z,22.20
2023-05-16T09:26:58.418Z,22.30
2023-05-16T09:29:23.956Z,22.30
2023-05-16T09:31:55.578Z,22.30
2023-05-16T09:34:24.180Z,22.30
2023-05-16T09:36:58.054Z,22.40
2023-05-16T09:39:23.017Z,22.40
2023-05-16T09:41:48.723Z,22.40
2023-05-16T09:44:14.294Z,22.60
2023-05-16T09:46:40.764Z,22.70
2023-05-16T09:49:06.548Z,22.60
2023-05-16T09:51:31.974Z,22.90
2023-05-16T09:54:00.733Z,23.10
2023-05-16T09:56:26.313Z,23.10
2023-05-16T09:58:53.850Z,23.10
2023-05-16T10:01:18.762Z,23.30
2023-05-16T10:03:44.409Z,23.60
2023-05-16T10:06:11.363Z,23.50
2023-05-16T10:08:38.663Z,23.20
2023-05-16T10:11:07.149Z,23.40
2023-05-16T10:13:34.035Z,23.60
2023-05-16T10:16:01.812Z,23.40
2023-05-16T10:18:31.553Z,23.50
2023-05-16T10:20:59.182Z,23.80
2023-05-16T10:23:26.768Z,23.80
2023-05-16T10:25:51.508Z,23.80
2023-05-16T10:28:21.832Z,23.90
2023-05-16T10:30:48.152Z,24.10
2023-05-16T10:33:13.875Z,24.00
2023-05-16T10:35:42.251Z,23.60
2023-05-16T10:38:09.425Z,23.50
2023-05-16T10:40:35.111Z,23.50
2023-05-16T10:43:00.392Z,23.40
2023-05-16T10:45:27.459Z,23.40
2023-05-16T10:47:56.935Z,23.40
2023-05-16T10:50:39.498Z,23.60
2023-05-16T10:53:19.759Z,23.70
2023-05-16T10:55:52.174Z,23.80
2023-05-16T10:58:24.502Z,24.00
2023-05-16T11:00:51.367Z,24.20
2023-05-16T11:03:28.584Z,24.30
2023-05-16T11:05:55.796Z,24.30
2023-05-16T11:08:20.529Z,24.20
2023-05-16T11:10:45.395Z,24.20
2023-05-16T11:13:10.168Z,24.30
2023-05-16T11:15:34.933Z,24.50
2023-05-16T11:18:12.274Z,24.60
2023-05-16T11:20:38.504Z,24.80
2023-05-16T11:23:24.540Z,24.80
2023-05-16T11:25:51.303Z,24.90
2023-05-16T11:28:16.812Z,24.90
2023-05-16T11:30:44.817Z,25.10
2023-05-16T11:33:12.997Z,25.00
2023-05-16T11:35:38.227Z,25.10
2023-05-16T11:38:02.917Z,25.30
2023-05-16T11:40:28.475Z,25.20
2023-05-16T11:42:53.121Z,25.30
2023-05-16T11:45:18.949Z,25.10
2023-05-16T11:47:44.576Z,25.20
2023-05-16T11:50:14.273Z,25.10
2023-05-16T11:52:39.730Z,25.40
2023-05-16T11:55:06.448Z,25.40
2023-05-16T11:57:31.321Z,25.40
2023-05-16T11:59:56.272Z,25.40
2023-05-16T12:02:20.947Z,25.60
2023-05-16T12:04:48.953Z,25.70
2023-05-16T12:07:15.193Z,25.60
2023-05-16T12:09:40.207Z,25.60
2023-05-16T12:12:07.294Z,25.50
2023-05-16T12:14:32.102Z,25.60
2023-05-16T12:16:57.418Z,25.60
2023-05-16T12:19:22.808Z,25.50
2023-05-16T12:21:50.894Z,25.30
2023-05-16T12:24:17.837Z,25.20
2023-05-16T12:26:44.719Z,25.30
2023-05-16T12:29:11.590Z,25.30
2023-05-16T12:31:39.468Z,25.40
2023-05-16T12:34:04.536Z,25.30
2023-05-16T12:36:34.183Z,25.20
2023-05-16T12:39:03.914Z,25.20
2023-05-16T12:41:32.896Z,25.20
2023-05-16T12:44:08.895Z,25.20
2023-05-16T12:46:33.676Z,25.30
2023-05-16T12:49:05.835Z,25.30
2023-05-16T12:51:34.637Z,25.20
2023-05-16T12:54:10.388Z,25.20
2023-05-16T12:56:41.160Z,25.10
2023-05-16T12:59:06.467Z,25.00
2023-05-16T13:01:31.141Z,25.00
2023-05-16T13:03:56.354Z,25.10
2023-05-16T13:06:21.865Z,25.00
2023-05-16T13:08:46.619Z,25.10
2023-05-16T13:11:11.476Z,25.10
2023-05-16T13:13:37.847Z,25.10
2023-05-16T13:16:02.532Z,25.10
2023-05-16T13:18:27.375Z,25.10
2023-05-16T13:20:53.055Z,25.20
2023-05-16T13:23:17.996Z,25.10
2023-05-16T13:25:53.953Z,25.20
2023-05-16T13:28:19.583Z,25.20
2023-05-16T13:30:45.919Z,25.20
2023-05-16T13:33:10.956Z,25.20
2023-05-16T13:35:35.727Z,25.30
2023-05-16T13:38:00.835Z,25.40
2023-05-16T13:40:25.532Z,25.40
2023-05-16T13:42:50.229Z,25.50
2023-05-16T13:45:14.965Z,25.50
2023-05-16T13:47:41.699Z,25.50
2023-05-16T13:50:10.370Z,25.70
2023-05-16T13:52:37.719Z,25.80
2023-05-16T13:55:03.722Z,25.70
2023-05-16T13:57:29.129Z,25.80
2023-05-16T14:00:17.578Z,25.80
2023-05-16T14:02:40.749Z,25.80
2023-05-16T14:05:05.810Z,25.70
2023-05-16T14:07:30.480Z,25.60
2023-05-16T14:09:55.192Z,25.60
2023-05-16T14:12:20.542Z,25.50
2023-05-16T14:14:45.893Z,25.50
2023-05-16T14:17:10.849Z,25.50
2023-05-16T14:19:38.285Z,25.40
2023-05-16T14:22:03.128Z,25.40
2023-05-16T14:24:27.988Z,25.40
2023-05-16T14:26:58.517Z,25.40
2023-05-16T14:29:25.956Z,25.40
2023-05-16T14:31:51.281Z,25.30
2023-05-16T14:34:17.148Z,25.30
2023-05-16T14:36:43.952Z,25.30
2023-05-16T14:39:09.292Z,25.20
2023-05-16T14:41:33.883Z,25.10
2023-05-16T14:43:58.620Z,25.10
2023-05-16T14:46:25.954Z,25.20
2023-05-16T14:48:51.429Z,25.20
2023-05-16T14:51:16.715Z,25.20
2023-05-16T14:53:45.283Z,25.20
2023-05-16T14:56:11.367Z,25.20
2023-05-16T14:58:36.159Z,25.20
2023-05-16T15:01:00.927Z,25.00
2023-05-16T15:03:25.703Z,25.00
2023-05-16T15:05:51.297Z,24.90
2023-05-16T15:08:19.583Z,25.00
2023-05-16T15:10:46.116Z,24.90
2023-05-16T15:13:11.166Z,24.90
2023-05-16T15:15:38.889Z,24.90
2023-05-16T15:18:03.579Z,24.80
2023-05-16T15:20:29.273Z,24.70
2023-05-16T15:22:56.449Z,24.70
2023-05-16T15:25:21.152Z,24.60
2023-05-16T15:27:47.509Z,24.60
2023-05-16T15:30:16.426Z,24.50
2023-05-16T15:32:41.965Z,24.40
2023-05-16T15:35:07.993Z,24.40
2023-05-16T15:37:33.098Z,24.40
2023-05-16T15:39:58.282Z,24.40
2023-05-16T15:42:23.424Z,24.30
2023-05-16T15:44:49.536Z,24.30
2023-05-16T15:47:14.312Z,24.20
2023-05-16T15:49:39.238Z,24.20
2023-05-16T15:52:03.984Z,24.20
2023-05-16T15:54:29.790Z,24.20
2023-05-16T15:56:57.058Z,24.20
2023-05-16T15:59:22.102Z,24.10
2023-05-16T16:01:48.531Z,24.00
2023-05-16T16:04:13.663Z,24.00
2023-05-16T16:06:38.833Z,23.90
2023-05-16T16:09:04.163Z,23.90
2023-05-16T16:11:28.935Z,23.80
2023-05-16T16:13:53.886Z,23.70
2023-05-16T16:16:18.993Z,23.70
2023-05-16T16:18:45.986Z,23.60
2023-05-16T16:21:11.339Z,23.60
2023-05-16T16:23:36.837Z,23.60
2023-05-16T16:26:02.458Z,23.60
2023-05-16T16:28:27.995Z,23.60
2023-05-16T16:30:53.143Z,23.50
2023-05-16T16:33:18.774Z,23.40
2023-05-16T16:35:44.756Z,23.30
2023-05-16T16:38:09.817Z,23.20
2023-05-16T16:40:34.702Z,23.20
2023-05-16T16:42:59.954Z,23.20
2023-05-16T16:45:25.547Z,23.10
2023-05-16T16:47:51.597Z,23.10
2023-05-16T16:50:16.924Z,23.00
2023-05-16T16:52:43.301Z,23.00
2023-05-16T16:55:09.040Z,22.90
2023-05-16T16:57:34.295Z,22.80
2023-05-16T17:00:00.805Z,22.70
2023-05-16T17:02:25.802Z,22.60
2023-05-16T17:04:51.174Z,22.60
2023-05-16T17:07:16.105Z,22.50
2023-05-16T17:09:43.175Z,22.50
2023-05-16T17:12:14.954Z,22.50
2023-05-16T17:14:40.012Z,22.40
2023-05-16T17:17:05.717Z,22.30
2023-05-16T17:19:30.879Z,22.30
2023-05-16T17:21:56.148Z,22.20
2023-05-16T17:24:21.268Z,22.20
2023-05-16T17:26:50.815Z,22.10
2023-05-16T17:29:17.224Z,22.10
2023-05-16T17:31:42.505Z,22.00
2023-05-16T17:34:08.098Z,21.90
2023-05-16T17:36:32.946Z,21.80
2023-05-16T17:38:58.870Z,21.70
2023-05-16T17:41:23.674Z,21.60
2023-05-16T17:43:50.053Z,21.50
2023-05-16T17:46:14.662Z,21.50
2023-05-16T17:48:39.721Z,21.40
2023-05-16T17:51:06.836Z,21.40
2023-05-16T17:53:31.434Z,21.30
2023-05-16T17:55:56.030Z,21.10
2023-05-16T17:58:21.210Z,21.00
2023-05-16T18:00:48.576Z,20.80
2023-05-16T18:03:13.372Z,20.80
2023-05-16T18:05:38.121Z,20.70
2023-05-16T18:08:03.064Z,20.70
2023-05-16T18:10:36.871Z,20.60
2023-05-16T18:13:15.629Z,20.50
2023-05-16T18:15:40.805Z,20.40
2023-05-16T18:18:07.707Z,20.30
2023-05-16T18:20:32.756Z,20.20
2023-05-16T18:22:57.963Z,20.00
2023-05-16T18:25:27.863Z,20.00
2023-05-16T18:27:52.509Z,19.80
2023-05-16T18:30:16.848Z,19.80
2023-05-16T18:32:42.028Z,19.70
2023-05-16T18:35:08.897Z,19.70
2023-05-16T18:37:33.676Z,19.60
2023-05-16T18:39:58.491Z,19.50
2023-05-16T18:42:23.592Z,19.50
2023-05-16T18:44:48.484Z,19.40
2023-05-16T18:47:16.245Z,19.20
2023-05-16T18:49:43.698Z,19.30
2023-05-16T18:52:26.519Z,19.20
2023-05-16T18:54:54.484Z,19.10
2023-05-16T18:57:19.510Z,19.10
2023-05-16T18:59:53.473Z,19.10
2023-05-16T19:02:24.428Z,19.10
2023-05-16T19:04:58.129Z,19.00
2023-05-16T19:07:25.963Z,18.90
2023-05-16T19:09:50.912Z,18.80
2023-05-16T19:12:15.370Z,18.70
2023-05-16T19:14:40.148Z,18.60
2023-05-16T19:17:07.866Z,18.60
2023-05-16T19:19:35.902Z,18.50
2023-05-16T19:22:03.315Z,18.40
2023-05-16T19:24:32.540Z,18.40
2023-05-16T19:26:57.626Z,18.20
2023-05-16T19:29:24.103Z,18.20
2023-05-16T19:31:48.784Z,18.20
2023-05-16T19:34:13.634Z,18.10
2023-05-16T19:36:38.329Z,18.00
2023-05-16T19:39:03.293Z,17.90
2023-05-16T19:41:29.667Z,17.80
2023-05-16T19:43:55.330Z,17.70
2023-05-16T19:46:20.709Z,17.60
2023-05-16T19:48:47.971Z,17.60
2023-05-16T19:51:12.816Z,17.60
2023-05-16T19:53:37.589Z,17.50
2023-05-16T19:56:04.513Z,17.50
2023-05-16T19:58:30.697Z,17.40
2023-05-16T20:00:56.695Z,17.30
2023-05-16T20:03:23.614Z,17.30
2023-05-16T20:05:48.256Z,17.20
2023-05-16T20:08:13.072Z,17.00
2023-05-16T20:10:39.881Z,17.00
2023-05-16T20:13:31.401Z,16.90
2023-05-16T20:16:12.896Z,16.80
2023-05-16T20:18:37.966Z,16.80
2023-05-16T20:21:03.019Z,16.70
2023-05-16T20:23:27.719Z,16.70
2023-05-16T20:25:52.408Z,16.70
2023-05-16T20:28:18.198Z,16.60
2023-05-16T20:30:43.269Z,16.60
2023-05-16T20:33:09.464Z,16.50
2023-05-16T20:35:34.252Z,16.50
2023-05-16T20:37:59.344Z,16.40
2023-05-16T20:40:24.005Z,16.40
2023-05-16T20:42:48.889Z,16.30
2023-05-16T20:45:13.495Z,16.30
2023-05-16T20:47:38.772Z,16.20
2023-05-16T20:50:05.173Z,16.20
2023-05-16T20:52:31.798Z,16.20
2023-05-16T20:54:58.262Z,16.10
2023-05-16T20:57:24.424Z,16.10
2023-05-16T20:59:49.075Z,16.00
2023-05-16T21:02:16.304Z,15.90
2023-05-16T21:04:41.073Z,15.90
2023-05-16T21:07:11.331Z,15.80
2023-05-16T21:09:37.113Z,15.80
2023-05-16T21:12:05.886Z,15.70
2023-05-16T21:14:30.868Z,15.60
2023-05-16T21:16:55.453Z,15.60
2023-05-16T21:19:20.229Z,15.50
2023-05-16T21:21:46.599Z,15.50
2023-05-16T21:24:12.611Z,15.50
2023-05-16T21:26:37.235Z,15.40
2023-05-16T21:29:02.773Z,15.40
2023-05-16T21:31:28.627Z,15.40
2023-05-16T21:33:53.682Z,15.40
2023-05-16T21:36:18.780Z,15.30
2023-05-16T21:38:43.489Z,15.20
2023-05-16T21:41:10.344Z,15.10
2023-05-16T21:43:35.047Z,15.10
2023-05-16T21:45:59.639Z,15.10
2023-05-16T21:48:24.557Z,15.00
2023-05-16T21:50:49.352Z,15.00
2023-05-16T21:53:14.514Z,15.00
2023-05-16T21:55:39.282Z,14.90
2023-05-16T21:58:06.149Z,14.80
2023-05-16T22:00:30.950Z,14.80
2023-05-16T22:02:56.228Z,14.70
2023-05-16T22:05:21.019Z,14.70
2023-05-16T22:07:45.839Z,14.70
2023-05-16T22:10:11.820Z,14.70
2023-05-16T22:12:36.501Z,14.70
2023-05-16T22:15:02.564Z,14.60
2023-05-16T22:17:32.356Z,14.50
2023-05-16T22:19:57.043Z,14.50
2023-05-16T22:22:21.750Z,14.50
2023-05-16T22:24:46.840Z,14.50
2023-05-16T22:27:11.749Z,14.40
2023-05-16T22:29:39.073Z,14.30
2023-05-16T22:32:06.325Z,14.30
2023-05-16T22:34:30.913Z,14.20
2023-05-16T22:36:55.660Z,14.20
2023-05-16T22:39:20.635Z,14.20
2023-05-16T22:41:45.258Z,14.20
2023-05-16T22:44:10.090Z,14.10
2023-05-16T22:46:34.630Z,14.10
2023-05-16T22:49:00.873Z,14.00
2023-05-16T22:51:25.771Z,14.10
2023-05-16T22:53:52.916Z,14.00
2023-05-16T22:56:17.518Z,14.00
2023-05-16T22:58:42.113Z,14.00
2023-05-16T23:01:14.994Z,13.90
2023-05-16T23:03:40.008Z,13.90
2023-05-16T23:06:06.605Z,13.90
2023-05-16T23:08:31.220Z,13.90
2023-05-16T23:10:56.223Z,13.80
2023-05-16T23:13:20.711Z,13.90
2023-05-16T23:15:45.348Z,13.80
2023-05-16T23:18:10.099Z,13.80
2023-05-16T23:20:35.018Z,13.80
2023-05-16T23:23:01.236Z,13.80
2023-05-16T23:25:26.177Z,13.80
2023-05-16T23:27:51.449Z,13.80
2023-05-16T23:30:16.948Z,13.80
2023-05-16T23:32:41.980Z,13.80
2023-05-16T23:35:07.559Z,13.80
2023-05-16T23:37:32.281Z,13.80
2023-05-16T23:39:58.268Z,13.80
2023-05-16T23:42:22.916Z,13.80
2023-05-16T23:44:47.754Z,13.80
2023-05-16T23:47:12.367Z,13.90
2023-05-16T23:49:37.005Z,13.90
2023-05-16T23:52:01.614Z,13.90
2023-05-16T23:54:26.491Z,13.90
2023-05-16T23:56:52.974Z,13.90
2023-05-16T23:59:19.126Z,13.90
